Airfield :
LOGIN :

Register | Disclaimer

   EN    FR    IT 

 










Legend :    VFR   Marginal VFR   IFR   Intensive IFR   Very Intensive IFR
Visi :
Ceiling :
>= 8 km
>= 3000ft
5 to 8 km
1000 to 3000 ft
1500m to 5 km
500 to 1000 ft
800 to 1500m
200 to 500 ft
< 800m
< 200 ft
Symbols :   Thunderstorms  Fog  Heavy snow  Heavy precipitations  Wind > 20 kt
SIGMETs :     Misc.  Thunderstorms  Icing  Turbulence  Mountain Waves  Volcanic Ashes







- Airport Elevation : 512 ft
- IATA code : URO
- Download approach charts


LFOP - Rouen Vallée de Seine

CURRENT METAR :
  • 231730Z AUTO 25010KT 9999 FEW026 OVC044 11/07 Q1009 NOSIG

EXPIRED METARs :
  • 231700Z AUTO 26007KT 9999 FEW027 BKN044 OVC050 11/08 Q1008 NOSIG
  • 231630Z AUTO 25005KT 9999 SCT024 BKN030 OVC045 11/08 Q1008 NOSIG
  • 231600Z AUTO 25006KT 9999 BKN026 BKN033 BKN047 11/08 Q1008 NOSIG
  • 231530Z AUTO 25007KT 9999 FEW022 BKN045 OVC052 11/08 Q1007 NOSIG
  • 231500Z AUTO 25009KT 9999 FEW023 BKN049 BKN064 11/08 Q1007 NOSIG

TAF TAF LFOP
Valid from the 23 at 18:00 until the 24 at 18:00 UTC


231700Z 2318/2418 23008KT 9999 BKN040
BECMG 2322/2324 14010KT RA BKN008 OVC013
TEMPO 2400/2404 22020G30KT 2000 RA BKN005 BKN020CB
BECMG 2403/2406 28010KT NSW
BECMG 2408/2411 22008KT BKN020
ATIS : +33 2 35 80 80 34
Met : +33 2 32 86 52 80
No reported NOTAMs for that airfield.



MET'MAP, your aeronautical weather chart ! - Copyright ORBIFLY December 2007 - Disclaimer

ORBIFLY MET'MAP TEAM :

Programming & Development : Alexandra Zaïnal
Concept & Development : Baudouin d'Aumeries
Co-Development & Prog : Marc-Olivier Méhu
Technical & hardware support : Manuel Goepfert

Contact : metmap@orbifly.com




SOURCES & CREDITS :

   NOAA